Schneifelwetter: Wetterstation Hallschlag, 537 m . NN
Wetterdaten: Montag, 03.09.2012
Datum Zeit Temp. A. Feuchte A. Luftdruck Regen Wind Richtung Richtung Sonnenschein T Regen Taupunkt Windchill
03.09.2012 00:14 8,4 C 87 % 1024 hPa 0,0 l/m 0,0 km/h (0 Bft) N-NW 335 0 min 0 min 6,4 C 8,4 C
03.09.2012 00:29 8,4 C 87 % 1024 hPa 0,0 l/m 0,0 km/h (0 Bft) N-NW 335 0 min 0 min 6,4 C 8,4 C
03.09.2012 00:44 8,4 C 88 % 1024 hPa 0,0 l/m 0,0 km/h (0 Bft) N-NW 335 0 min 0 min 6,5 C 8,4 C
03.09.2012 00:59 8,2 C 88 % 1024 hPa 0,0 l/m 0,0 km/h (0 Bft) N-NW 335 0 min 0 min 6,3 C 8,2 C
03.09.2012 01:14 8,0 C 88 % 1024 hPa 0,0 l/m 0,0 km/h (0 Bft) N-NW 335 0 min 0 min 6,1 C 8,0 C
03.09.2012 01:29 7,8 C 88 % 1024 hPa 0,0 l/m 0,0 km/h (0 Bft) N-NW 335 0 min 0 min 5,9 C 7,8 C
03.09.2012 01:44 7,6 C 88 % 1024 hPa 0,0 l/m 0,0 km/h (0 Bft) N-NW 335 0 min 0 min 5,7 C 7,6 C
03.09.2012 01:59 7,4 C 89 % 1024 hPa 0,0 l/m 0,0 km/h (0 Bft) N-NW 335 0 min 0 min 5,7 C 7,4 C
03.09.2012 02:14 7,3 C 90 % 1024 hPa 0,0 l/m 0,0 km/h (0 Bft) N-NW 335 0 min 0 min 5,8 C 7,3 C
03.09.2012 02:29 7,1 C 90 % 1023 hPa 0,0 l/m 0,0 km/h (0 Bft) N-NW 335 0 min 0 min 5,6 C 7,1 C
03.09.2012 02:44 6,9 C 90 % 1023 hPa 0,0 l/m 0,0 km/h (0 Bft) N-NW 335 0 min 0 min 5,4 C 6,9 C
03.09.2012 02:59 6,9 C 90 % 1023 hPa 0,0 l/m 0,0 km/h (0 Bft) N-NW 335 0 min 0 min 5,4 C 6,9 C
03.09.2012 03:14 6,6 C 90 % 1023 hPa 0,0 l/m 0,0 km/h (0 Bft) N-NW 335 0 min 0 min 5,1 C 6,6 C
03.09.2012 03:29 6,4 C 91 % 1023 hPa 0,0 l/m 0,0 km/h (0 Bft) N-NW 335 0 min 0 min 5,0 C 6,4 C
03.09.2012 03:44 6,2 C 91 % 1023 hPa 0,0 l/m 0,0 km/h (0 Bft) N-NW 335 0 min 0 min 4,8 C 6,2 C
03.09.2012 03:59 5,9 C 90 % 1023 hPa 0,0 l/m 0,0 km/h (0 Bft) N-NW 335 0 min 0 min 4,4 C 5,9 C
03.09.2012 04:14 6,0 C 91 % 1023 hPa 0,0 l/m 0,0 km/h (0 Bft) N-NW 335 0 min 0 min 4,6 C 6,0 C
03.09.2012 04:29 6,0 C 91 % 1023 hPa 0,0 l/m 0,0 km/h (0 Bft) N-NW 335 0 min 0 min 4,6 C 6,0 C
03.09.2012 04:44 5,8 C 92 % 1023 hPa 0,0 l/m 0,0 km/h (0 Bft) N-NW 335 0 min 0 min 4,6 C 5,8 C
03.09.2012 04:59 5,6 C 92 % 1023 hPa 0,0 l/m 0,0 km/h (0 Bft) N-NW 335 0 min 0 min 4,4 C 5,6 C
03.09.2012 05:14 5,5 C 92 % 1023 hPa 0,0 l/m 0,0 km/h (0 Bft) N-NW 335 0 min 0 min 4,3 C 5,5 C
03.09.2012 05:29 5,4 C 92 % 1023 hPa 0,0 l/m 0,0 km/h (0 Bft) N-NW 335 0 min 0 min 4,2 C 5,4 C
03.09.2012 05:44 5,2 C 92 % 1023 hPa 0,0 l/m 0,0 km/h (0 Bft) N-NW 335 0 min 0 min 4,0 C 5,2 C
03.09.2012 05:59 5,1 C 92 % 1023 hPa 0,0 l/m 0,0 km/h (0 Bft) N-NW 335 0 min 0 min 3,9 C 5,1 C
03.09.2012 06:14 5,1 C 93 % 1023 hPa 0,0 l/m 0,0 km/h (0 Bft) N-NW 335 0 min 0 min 4,1 C 5,1 C
03.09.2012 06:29 5,2 C 93 % 1024 hPa 0,0 l/m 0,0 km/h (0 Bft) N-NW 335 0 min 0 min 4,2 C 5,2 C
03.09.2012 06:44 5,1 C 93 % 1023 hPa 0,0 l/m 0,0 km/h (0 Bft) N-NW 335 0 min 0 min 4,1 C 5,1 C
03.09.2012 06:59 4,8 C 93 % 1024 hPa 0,0 l/m 0,0 km/h (0 Bft) N-NW 335 0 min 0 min 3,8 C 4,8 C
03.09.2012 07:14 4,7 C 93 % 1024 hPa 0,0 l/m 0,0 km/h (0 Bft) N-NW 335 0 min 0 min 3,7 C 4,7 C
03.09.2012 07:29 4,7 C 93 % 1024 hPa 0,0 l/m 0,0 km/h (0 Bft) N-NW 335 0 min 0 min 3,7 C 4,7 C
03.09.2012 07:44 4,8 C 93 % 1024 hPa 0,0 l/m 0,0 km/h (0 Bft) N-NW 335 0 min 0 min 3,8 C 4,8 C
03.09.2012 07:58 5,5 C 94 % 1024 hPa 0,0 l/m 0,0 km/h (0 Bft) N-NW 335 0 min 0 min 4,6 C 5,5 C
03.09.2012 08:14 6,2 C 94 % 1024 hPa 0,0 l/m 0,0 km/h (0 Bft) N-NW 335 0 min 0 min 5,3 C 6,2 C
03.09.2012 08:29 7,5 C 94 % 1024 hPa 0,0 l/m 0,0 km/h (0 Bft) N-NW 335 0 min 0 min 6,6 C 7,5 C
03.09.2012 08:44 8,6 C 94 % 1024 hPa 0,0 l/m 0,0 km/h (0 Bft) N-NW 335 0 min 0 min 7,7 C 8,6 C
03.09.2012 08:59 9,4 C 94 % 1024 hPa 0,0 l/m 0,0 km/h (0 Bft) N-NW 335 0 min 0 min 8,5 C 9,4 C
03.09.2012 09:14 10,3 C 94 % 1024 hPa 0,0 l/m 0,0 km/h (0 Bft) N-NW 335 0 min 0 min 9,4 C 10,3 C
03.09.2012 09:29 11,3 C 94 % 1023 hPa 0,0 l/m 0,0 km/h (0 Bft) N-NW 335 0 min 0 min 10,4 C 11,3 C
03.09.2012 09:44 12,8 C 93 % 1023 hPa 0,0 l/m 0,0 km/h (0 Bft) N-NW 335 0 min 0 min 11,7 C 12,8 C
03.09.2012 09:59 13,6 C 88 % 1023 hPa 0,0 l/m 0,0 km/h (0 Bft) NO22.5 35 0 min 0 min 11,6 C 13,6 C
03.09.2012 10:14 14,5 C 83 % 1023 hPa 0,0 l/m 0,0 km/h (0 Bft) N-NO22.5 15 0 min 0 min 11,6 C 14,5 C
03.09.2012 10:29 15,1 C 82 % 1023 hPa 0,0 l/m 16,5 km/h (3 Bft) N45 10 0 min 0 min 12,0 C 10,8 C
03.09.2012 10:44 15,4 C 79 % 1023 hPa 0,0 l/m 16,0 km/h (3 Bft) N45 5 0 min 0 min 11,8 C 11,4 C
03.09.2012 10:59 16,1 C 78 % 1024 hPa 0,0 l/m 14,9 km/h (3 Bft) N-NO45 25 0 min 0 min 12,3 C 12,6 C
03.09.2012 11:14 15,7 C 76 % 1024 hPa 0,0 l/m 17,3 km/h (3 Bft) N-NO45 30 0 min 0 min 11,5 C 11,4 C
03.09.2012 11:29 16,4 C 75 % 1023 hPa 0,0 l/m 18,0 km/h (3 Bft) N-NO22.5 30 0 min 0 min 12,0 C 12,0 C
03.09.2012 11:44 17,2 C 74 % 1023 hPa 0,0 l/m 17,2 km/h (3 Bft) O-NO45 65 0 min 0 min 12,5 C 13,3 C
03.09.2012 11:59 18,0 C 74 % 1023 hPa 0,0 l/m 14,1 km/h (3 Bft) NO45 45 0 min 0 min 13,3 C 15,1 C
03.09.2012 12:14 18,4 C 69 % 1023 hPa 0,0 l/m 13,3 km/h (3 Bft) N-NO45 15 0 min 0 min 12,6 C 15,8 C
03.09.2012 12:28 17,4 C 71 % 1023 hPa 0,0 l/m 16,0 km/h (3 Bft) N-NO22.5 15 0 min 0 min 12,1 C 13,8 C
03.09.2012 12:44 17,1 C 72 % 1023 hPa 0,0 l/m 17,1 km/h (3 Bft) N-NO22.5 30 0 min 0 min 12,0 C 13,2 C
03.09.2012 12:59 17,2 C 71 % 1023 hPa 0,0 l/m 16,3 km/h (3 Bft) N-NO22.5 30 0 min 0 min 11,9 C 13,5 C
03.09.2012 13:14 17,4 C 71 % 1023 hPa 0,0 l/m 17,8 km/h (3 Bft) N-NO45 20 0 min 0 min 12,1 C 13,4 C
03.09.2012 13:29 17,7 C 69 % 1023 hPa 0,0 l/m 18,7 km/h (3 Bft) NO45 45 0 min 0 min 11,9 C 13,5 C
03.09.2012 13:44 18,2 C 70 % 1023 hPa 0,0 l/m 16,1 km/h (3 Bft) O67.5 80 0 min 0 min 12,6 C 14,8 C
03.09.2012 13:58 18,1 C 69 % 1023 hPa 0,0 l/m 19,1 km/h (3 Bft) N-NO45 25 0 min 0 min 12,3 C 13,9 C
03.09.2012 14:14 18,0 C 70 % 1023 hPa 0,0 l/m 20,2 km/h (4 Bft) NO67.5 40 0 min 0 min 12,4 C 13,6 C
03.09.2012 14:29 17,8 C 69 % 1023 hPa 0,0 l/m 20,6 km/h (4 Bft) N-NO22.5 15 0 min 0 min 12,0 C 13,2 C
03.09.2012 14:44 17,9 C 71 % 1023 hPa 0,0 l/m 18,3 km/h (3 Bft) NO67.5 40 0 min 0 min 12,6 C 13,9 C
03.09.2012 14:59 17,4 C 72 % 1023 hPa 0,0 l/m 22,8 km/h (4 Bft) N-NO45 25 0 min 0 min 12,3 C 12,3 C
03.09.2012 15:14 16,7 C 74 % 1023 hPa 0,0 l/m 22,0 km/h (4 Bft) N-NO67.5 15 0 min 0 min 12,0 C 11,5 C
03.09.2012 15:28 16,2 C 76 % 1023 hPa 0,0 l/m 20,1 km/h (4 Bft) NO67.5 55 0 min 0 min 12,0 C 11,3 C
03.09.2012 15:44 16,0 C 78 % 1023 hPa 0,0 l/m 17,3 km/h (3 Bft) NO45 45 0 min 0 min 12,2 C 11,7 C
03.09.2012 15:59 16,0 C 78 % 1023 hPa 0,0 l/m 15,3 km/h (3 Bft) NO22.5 35 0 min 0 min 12,2 C 12,3 C
03.09.2012 16:14 16,1 C 78 % 1023 hPa 0,0 l/m 18,8 km/h (3 Bft) NO22.5 35 0 min 0 min 12,3 C 11,5 C
03.09.2012 16:29 16,2 C 78 % 1022 hPa 0,0 l/m 19,3 km/h (3 Bft) N-NO22.5 20 0 min 0 min 12,4 C 11,5 C
03.09.2012 16:44 16,0 C 79 % 1023 hPa 0,0 l/m 20,7 km/h (4 Bft) N-NO22.5 25 0 min 0 min 12,4 C 10,9 C
03.09.2012 16:58 15,9 C 79 % 1022 hPa 0,0 l/m 23,6 km/h (4 Bft) N-NO67.5 25 0 min 0 min 12,3 C 10,1 C
03.09.2012 17:14 16,0 C 78 % 1022 hPa 0,0 l/m 23,3 km/h (4 Bft) NO22.5 45 0 min 0 min 12,2 C 10,3 C
03.09.2012 17:29 15,7 C 79 % 1022 hPa 0,0 l/m 30,4 km/h (5 Bft) NO22.5 35 0 min 0 min 12,1 C 8,6 C
03.09.2012 17:44 15,7 C 79 % 1023 hPa 0,0 l/m 22,5 km/h (4 Bft) N-NO22.5 25 0 min 0 min 12,1 C 10,1 C
03.09.2012 17:59 15,6 C 80 % 1023 hPa 0,0 l/m 20,9 km/h (4 Bft) NO22.5 35 0 min 0 min 12,2 C 10,3 C
03.09.2012 18:14 15,5 C 81 % 1022 hPa 0,0 l/m 15,1 km/h (3 Bft) N-NO 30 0 min 0 min 12,3 C 11,8 C
03.09.2012 18:28 15,2 C 82 % 1022 hPa 0,0 l/m 19,1 km/h (3 Bft) N-NO45 30 0 min 0 min 12,1 C 10,2 C
03.09.2012 18:44 15,0 C 82 % 1023 hPa 0,0 l/m 21,6 km/h (4 Bft) NO45 35 0 min 0 min 12,0 C 9,4 C
03.09.2012 18:59 15,0 C 83 % 1023 hPa 0,0 l/m 18,3 km/h (3 Bft) NO45 35 0 min 0 min 12,1 C 10,2 C
03.09.2012 19:14 14,9 C 84 % 1023 hPa 0,0 l/m 15,9 km/h (3 Bft) N-NO22.5 25 0 min 0 min 12,2 C 10,8 C
03.09.2012 19:29 14,8 C 84 % 1023 hPa 0,0 l/m 19,5 km/h (3 Bft) NO45 35 0 min 0 min 12,1 C 9,6 C
03.09.2012 19:44 14,7 C 84 % 1023 hPa 0,0 l/m 14,1 km/h (3 Bft) N-NO67.5 25 0 min 0 min 12,0 C 11,1 C
03.09.2012 19:58 14,6 C 85 % 1022 hPa 0,0 l/m 15,9 km/h (3 Bft) NO22.5 45 0 min 0 min 12,1 C 10,4 C
03.09.2012 20:14 14,4 C 85 % 1022 hPa 0,0 l/m 16,0 km/h (3 Bft) NO22.5 40 0 min 0 min 11,9 C 10,1 C
03.09.2012 20:29 14,4 C 86 % 1022 hPa 0,0 l/m 12,0 km/h (2 Bft) N-NO22.5 30 0 min 0 min 12,1 C 11,6 C
03.09.2012 20:44 13,9 C 86 % 1023 hPa 0,0 l/m 11,8 km/h (2 Bft) N-NO22.5 30 0 min 0 min 11,6 C 11,1 C
03.09.2012 20:59 13,4 C 86 % 1023 hPa 0,0 l/m 1,6 km/h (1 Bft) N-NO 30 0 min 0 min 11,1 C 13,4 C
03.09.2012 21:14 12,9 C 87 % 1023 hPa 0,0 l/m 3,7 km/h (1 Bft) N-NO 30 0 min 0 min 10,8 C 12,9 C
03.09.2012 21:28 12,7 C 89 % 1023 hPa 0,0 l/m 0,0 km/h (0 Bft) N-NO 30 0 min 0 min 10,9 C 12,7 C
03.09.2012 21:44 12,3 C 89 % 1023 hPa 0,0 l/m 0,0 km/h (0 Bft) N-NO 30 0 min 0 min 10,5 C 12,3 C
03.09.2012 21:59 12,1 C 90 % 1023 hPa 0,0 l/m 0,0 km/h (0 Bft) N-NO 30 0 min 0 min 10,5 C 12,1 C
03.09.2012 22:14 11,8 C 89 % 1023 hPa 0,0 l/m 0,0 km/h (0 Bft) N-NO 30 0 min 0 min 10,0 C 11,8 C
03.09.2012 22:29 11,2 C 90 % 1023 hPa 0,0 l/m 0,0 km/h (0 Bft) N-NO 30 0 min 0 min 9,6 C 11,2 C
03.09.2012 22:44 10,8 C 90 % 1023 hPa 0,0 l/m 0,0 km/h (0 Bft) N-NO 30 0 min 0 min 9,2 C 10,8 C
03.09.2012 22:58 10,6 C 91 % 1023 hPa 0,0 l/m 0,0 km/h (0 Bft) N-NO 30 0 min 0 min 9,2 C 10,6 C
03.09.2012 23:14 10,4 C 92 % 1023 hPa 0,0 l/m 0,0 km/h (0 Bft) N-NO 30 0 min 0 min 9,2 C 10,4 C
03.09.2012 23:29 10,1 C 92 % 1023 hPa 0,0 l/m 0,0 km/h (0 Bft) N-NO 30 0 min 0 min 8,9 C 10,1 C
03.09.2012 23:44 10,0 C 92 % 1023 hPa 0,0 l/m 0,0 km/h (0 Bft) N-NO 30 0 min 0 min 8,8 C 10,0 C
03.09.2012 23:59 9,8 C 92 % 1023 hPa 0,0 l/m 0,0 km/h (0 Bft) N-NO 30 0 min 0 min 8,6 C 9,8 C
_ Min-Zeit 07:14 12:14 16:29 - 00:14 - - - - 07:14 07:14
Minimum _ 4,7 C 69 % 1022 hPa - 0,0 km/h (0 Bft) - - - - 3,7 C 4,7 C
_ Max-Zeit 12:14 07:58 00:14 00:14 17:29 - - 00:14 00:14 11:59 12:14
Maximum _ 18,4 C 94 % 1024 hPa 0,0 l/m 30,4 km/h
NO (5 Bft)
- - 0 min 0 min 13,3 C 15,8 C
Durchschnitt _ 11,7 C 85 % 1023 hPa #0,0 l/m 8,0 km/h (2 Bft) N-NO - #0 min. #0 min. 9,1 C 9,8 C